createdAt,value
2023-05-21T00:04:58.039Z,101445.45
2023-05-21T00:10:00.964Z,101446.85
2023-05-21T00:15:04.531Z,101446.38
2023-05-21T00:20:09.098Z,101447.36
2023-05-21T00:25:12.066Z,101443.81
2023-05-21T00:30:16.248Z,101442.23
2023-05-21T00:35:19.678Z,101443.02
2023-05-21T00:40:22.615Z,101447.52
2023-05-21T00:45:25.605Z,101447.79
2023-05-21T00:50:30.468Z,101450.42
2023-05-21T00:55:34.935Z,101451.46
2023-05-21T01:00:37.981Z,101456.55
2023-05-21T01:05:41.062Z,101458.00
2023-05-21T01:10:44.511Z,101460.27
2023-05-21T01:15:47.313Z,101462.89
2023-05-21T01:20:50.480Z,101460.70
2023-05-21T01:25:53.289Z,101455.15
2023-05-21T01:30:56.072Z,101451.21
2023-05-21T01:36:34.560Z,101449.42
2023-05-21T01:41:38.878Z,101446.00
2023-05-21T01:46:41.838Z,101448.08
2023-05-21T01:51:44.756Z,101446.82
2023-05-21T01:56:49.762Z,101447.32
2023-05-21T02:01:52.756Z,101446.93
2023-05-21T02:06:55.641Z,101450.89
2023-05-21T02:11:58.554Z,101449.41
2023-05-21T02:17:01.340Z,101445.90
2023-05-21T02:22:04.394Z,101446.65
2023-05-21T02:27:07.174Z,101437.98
2023-05-21T02:32:09.932Z,101440.73
2023-05-21T02:37:12.695Z,101438.63
2023-05-21T02:42:15.734Z,101439.38
2023-05-21T02:47:19.639Z,101436.19
2023-05-21T02:52:22.683Z,101435.39
2023-05-21T02:57:25.766Z,101435.22
2023-05-21T03:02:28.833Z,101438.77
2023-05-21T03:07:32.537Z,101440.89
2023-05-21T03:12:35.351Z,101443.52
2023-05-21T03:17:38.258Z,101438.50
2023-05-21T03:22:42.074Z,101432.88
2023-05-21T03:27:44.864Z,101430.28
2023-05-21T03:32:47.855Z,101429.52
2023-05-21T03:37:50.806Z,101426.60
2023-05-21T03:42:54.528Z,101425.50
2023-05-21T03:47:57.491Z,101420.55
2023-05-21T03:53:00.352Z,101415.92
2023-05-21T03:58:03.350Z,101420.84
2023-05-21T04:03:07.283Z,101415.90
2023-05-21T04:08:10.727Z,101420.27
2023-05-21T04:13:13.573Z,101422.75
2023-05-21T04:18:17.279Z,101420.35
2023-05-21T04:23:20.155Z,101421.28
2023-05-21T04:28:24.261Z,101416.39
2023-05-21T04:33:27.219Z,101411.61
2023-05-21T04:38:30.363Z,101403.66
2023-05-21T04:43:33.306Z,101403.04
2023-05-21T04:48:36.212Z,101405.12
2023-05-21T04:53:39.024Z,101400.33
2023-05-21T04:58:41.899Z,101398.89
2023-05-21T05:03:45.848Z,101399.90
2023-05-21T05:08:49.330Z,101402.40
2023-05-21T05:13:52.659Z,101403.26
2023-05-21T05:18:55.979Z,101405.45
2023-05-21T05:23:59.018Z,101394.96
2023-05-21T05:29:01.800Z,101392.77
2023-05-21T05:34:04.847Z,101393.31
2023-05-21T05:39:07.815Z,101389.02
2023-05-21T05:44:11.051Z,101387.70
2023-05-21T05:49:14.100Z,101385.54
2023-05-21T05:54:16.945Z,101384.83
2023-05-21T05:59:19.871Z,101382.18
2023-05-21T06:04:22.650Z,101384.89
2023-05-21T06:09:25.474Z,101381.17
2023-05-21T06:14:28.307Z,101383.18
2023-05-21T06:19:31.142Z,101379.27
2023-05-21T06:24:34.100Z,101381.67
2023-05-21T06:29:36.940Z,101376.68
2023-05-21T06:34:39.871Z,101374.80
2023-05-21T06:39:42.722Z,101378.52
2023-05-21T06:44:45.489Z,101375.30
2023-05-21T06:49:48.426Z,101370.71
2023-05-21T06:54:51.252Z,101366.64
2023-05-21T06:59:54.054Z,101362.27
2023-05-21T07:04:56.919Z,101359.08
2023-05-21T07:09:59.738Z,101356.83
2023-05-21T07:15:04.633Z,101355.73
2023-05-21T07:20:09.644Z,101352.61
2023-05-21T07:25:12.567Z,101350.16
2023-05-21T07:30:15.905Z,101345.74
2023-05-21T07:35:19.179Z,101344.66
2023-05-21T07:40:22.177Z,101343.04
2023-05-21T07:45:25.062Z,101339.89
2023-05-21T07:50:28.020Z,101338.88
2023-05-21T07:55:31.100Z,101341.33
2023-05-21T08:00:42.641Z,101338.48
2023-05-21T08:05:48.619Z,101339.95
2023-05-21T08:10:51.535Z,101341.95
2023-05-21T08:15:54.441Z,101337.95
2023-05-21T08:20:57.312Z,101333.95
2023-05-21T08:26:00.127Z,101339.65
2023-05-21T08:31:03.033Z,101327.23
2023-05-21T08:36:06.914Z,101319.20
2023-05-21T08:41:11.613Z,101318.67
2023-05-21T08:46:14.457Z,101315.57
2023-05-21T08:51:17.461Z,101316.20
2023-05-21T08:56:20.286Z,101318.73
2023-05-21T09:01:25.639Z,101319.79
2023-05-21T09:06:29.396Z,101318.62
2023-05-21T09:11:32.195Z,101318.95
2023-05-21T09:16:35.155Z,101323.13
2023-05-21T09:21:38.097Z,101321.21
2023-05-21T09:26:44.068Z,101311.66
2023-05-21T09:31:47.271Z,101312.16
2023-05-21T09:36:51.984Z,101306.37
2023-05-21T09:41:57.834Z,101302.27
2023-05-21T09:47:01.969Z,101302.80
2023-05-21T09:52:05.214Z,101301.16
2023-05-21T09:57:08.088Z,101302.34
2023-05-21T10:02:22.526Z,101300.70
2023-05-21T10:07:26.483Z,101296.38
2023-05-21T10:12:30.731Z,101293.08
2023-05-21T10:17:33.615Z,101291.98
2023-05-21T10:22:36.825Z,101289.83
2023-05-21T10:27:39.730Z,101288.27
2023-05-21T10:32:42.784Z,101284.60
2023-05-21T10:37:45.893Z,101281.17
2023-05-21T10:43:02.208Z,101281.48
2023-05-21T10:48:29.684Z,101279.95
2023-05-21T10:54:19.578Z,101280.85
2023-05-21T10:59:45.477Z,101279.41
2023-05-21T11:04:49.362Z,101266.20
2023-05-21T11:09:52.331Z,101269.01
2023-05-21T11:14:58.218Z,101264.66
2023-05-21T11:20:05.358Z,101256.77
2023-05-21T11:25:08.560Z,101251.48
2023-05-21T11:30:19.198Z,101250.92
2023-05-21T11:35:22.496Z,101247.73
2023-05-21T11:40:26.678Z,101244.73
2023-05-21T11:45:33.100Z,101231.05
2023-05-21T11:50:37.045Z,101239.86
2023-05-21T11:55:43.620Z,101240.92
2023-05-21T12:00:46.653Z,101242.84
2023-05-21T12:05:49.750Z,101233.13
2023-05-21T12:10:59.114Z,101231.95
2023-05-21T12:16:04.580Z,101233.42
2023-05-21T12:21:11.723Z,101232.05
2023-05-21T12:26:15.291Z,101231.34
2023-05-21T12:31:18.314Z,101227.64
2023-05-21T12:36:34.989Z,101222.51
2023-05-21T12:41:37.929Z,101217.79
2023-05-21T12:46:41.046Z,101220.27
2023-05-21T12:51:45.115Z,101215.42
2023-05-21T12:56:48.201Z,101216.14
2023-05-21T13:01:52.373Z,101208.98
2023-05-21T13:06:55.245Z,101204.48
2023-05-21T13:11:58.175Z,101203.29
2023-05-21T13:17:02.420Z,101199.15
2023-05-21T13:22:05.433Z,101196.06
2023-05-21T13:27:08.292Z,101199.07
2023-05-21T13:32:11.298Z,101196.09
2023-05-21T13:37:14.887Z,101188.19
2023-05-21T13:42:17.685Z,101186.77
2023-05-21T13:47:20.594Z,101186.59
2023-05-21T13:52:23.613Z,101183.03
2023-05-21T13:57:27.289Z,101175.38
2023-05-21T14:02:30.330Z,101180.73
2023-05-21T14:07:33.522Z,101177.29
2023-05-21T14:12:36.710Z,101177.84
2023-05-21T14:17:40.694Z,101176.91
2023-05-21T14:22:43.700Z,101169.81
2023-05-21T14:27:46.529Z,101171.30
2023-05-21T14:32:49.393Z,101168.18
2023-05-21T14:37:54.246Z,101166.35
2023-05-21T14:42:57.063Z,101162.72
2023-05-21T14:48:00.032Z,101156.89
2023-05-21T14:53:10.731Z,101149.88
2023-05-21T14:58:13.985Z,101149.30
2023-05-21T15:03:16.926Z,101144.05
2023-05-21T15:08:19.822Z,101139.24
2023-05-21T15:13:22.612Z,101132.42
2023-05-21T15:18:25.496Z,101134.12
2023-05-21T15:23:28.373Z,101130.52
2023-05-21T15:28:31.285Z,101126.77
2023-05-21T15:33:34.195Z,101129.85
2023-05-21T15:38:37.037Z,101134.52
2023-05-21T15:43:39.830Z,101134.77
2023-05-21T15:48:42.749Z,101130.55
2023-05-21T15:53:45.597Z,101132.19
2023-05-21T15:58:48.625Z,101127.55
2023-05-21T16:03:51.590Z,101127.66
2023-05-21T16:08:54.424Z,101120.66
2023-05-21T16:13:57.437Z,101119.91
2023-05-21T16:19:01.942Z,101121.84
2023-05-21T16:24:05.669Z,101124.00
2023-05-21T16:29:08.659Z,101123.20
2023-05-21T16:34:11.495Z,101119.32
2023-05-21T16:39:14.430Z,101118.26
2023-05-21T16:44:17.411Z,101119.32
2023-05-21T16:49:20.198Z,101127.64
2023-05-21T16:54:23.091Z,101127.91
2023-05-21T16:59:25.919Z,101130.64
2023-05-21T17:04:28.695Z,101131.56
2023-05-21T17:09:31.552Z,101128.46
2023-05-21T17:14:35.422Z,101129.20
2023-05-21T17:19:39.738Z,101130.04
2023-05-21T17:24:42.681Z,101121.95
2023-05-21T17:29:46.018Z,101120.20
2023-05-21T17:34:48.799Z,101115.65
2023-05-21T17:39:52.762Z,101119.73
2023-05-21T17:44:56.396Z,101123.67
2023-05-21T17:49:59.359Z,101117.77
2023-05-21T17:55:02.234Z,101116.41
2023-05-21T18:00:07.027Z,101112.14
2023-05-21T18:05:10.433Z,101111.98
2023-05-21T18:10:15.374Z,101110.98
2023-05-21T18:15:18.360Z,101109.66
2023-05-21T18:20:21.244Z,101109.46
2023-05-21T18:25:24.101Z,101111.30
2023-05-21T18:30:27.041Z,101116.96
2023-05-21T18:35:31.141Z,101122.64
2023-05-21T18:40:33.960Z,101125.78
2023-05-21T18:45:36.906Z,101125.39
2023-05-21T18:50:39.834Z,101126.86
2023-05-21T18:55:42.765Z,101126.91
2023-05-21T19:00:45.778Z,101134.56
2023-05-21T19:05:48.715Z,101133.39
2023-05-21T19:10:53.522Z,101134.09
2023-05-21T19:15:58.648Z,101137.20
2023-05-21T19:21:03.211Z,101135.35
2023-05-21T19:26:06.155Z,101133.53
2023-05-21T19:31:09.735Z,101136.98
2023-05-21T19:36:13.323Z,101136.55
2023-05-21T19:41:22.071Z,101135.37
2023-05-21T19:46:25.725Z,101140.55
2023-05-21T19:51:28.721Z,101137.45
2023-05-21T19:56:32.015Z,101137.56
2023-05-21T20:01:39.519Z,101132.08
2023-05-21T20:06:42.637Z,101131.42
2023-05-21T20:11:45.506Z,101129.63
2023-05-21T20:16:48.447Z,101131.90
2023-05-21T20:21:51.548Z,101127.44
2023-05-21T20:26:55.115Z,101132.05
2023-05-21T20:31:58.124Z,101136.88
2023-05-21T20:37:02.433Z,101139.27
2023-05-21T20:42:10.589Z,101140.27
2023-05-21T20:47:13.896Z,101140.82
2023-05-21T20:52:16.681Z,101145.37
2023-05-21T20:57:19.707Z,101145.41
2023-05-21T21:02:23.143Z,101145.27
2023-05-21T21:07:26.120Z,101144.30
2023-05-21T21:12:29.041Z,101137.14
2023-05-21T21:17:31.879Z,101137.08
2023-05-21T21:22:34.812Z,101133.10
2023-05-21T21:27:37.707Z,101131.23
2023-05-21T21:32:41.242Z,101128.34
2023-05-21T21:37:44.049Z,101127.55
2023-05-21T21:42:46.906Z,101127.14
2023-05-21T21:47:49.815Z,101125.08
2023-05-21T21:52:56.000Z,101125.85
2023-05-21T21:57:59.080Z,101121.45
2023-05-21T22:03:02.158Z,101121.02
2023-05-21T22:08:05.559Z,101124.04
2023-05-21T22:13:08.450Z,101129.73
2023-05-21T22:18:12.334Z,101129.84
2023-05-21T22:23:15.440Z,101129.27
2023-05-21T22:28:18.344Z,101128.36
2023-05-21T22:33:21.400Z,101122.34
2023-05-21T22:38:25.107Z,101121.70
2023-05-21T22:43:28.065Z,101123.86
2023-05-21T22:48:31.133Z,101126.34
2023-05-21T22:53:34.019Z,101126.43
2023-05-21T22:58:36.890Z,101125.45
2023-05-21T23:03:39.792Z,101124.05
2023-05-21T23:08:42.700Z,101126.13
2023-05-21T23:13:45.536Z,101125.92
2023-05-21T23:18:50.090Z,101122.80
2023-05-21T23:23:53.020Z,101123.05
2023-05-21T23:28:55.796Z,101122.29
2023-05-21T23:33:58.579Z,101119.58
2023-05-21T23:39:01.900Z,101117.45
2023-05-21T23:44:04.836Z,101114.84
2023-05-21T23:49:07.799Z,101115.36
2023-05-21T23:54:10.639Z,101117.92
2023-05-21T23:59:14.628Z,101119.11
